Time;durP1;ratioP1;P1;durP2;ratioP2;P2;SDS_P1;SDS_P2;PMS_P1;PMS_P2;Temp;Humidity;BMP_temperature;BMP_pressure;BME280_temperature;BME280_humidity;BME280_pressure;Samples;Min_cycle;Max_cycle;Signal;HPM_P1;HPM_P2
2023/09/24 00:02:19;;;;;;;2.72;1.15;;;13.90;99.90;;;;;;6276192;22;20019;-83
2023/09/24 00:04:44;;;;;;;1.60;0.95;;;13.90;99.90;;;;;;6275424;22;20134;-82
2023/09/24 00:07:10;;;;;;;2.15;0.90;;;13.90;99.90;;;;;;6274433;22;20058;-83
2023/09/24 00:09:36;;;;;;;2.00;0.98;;;13.90;99.90;;;;;;6275374;22;20426;-82
2023/09/24 00:12:03;;;;;;;2.38;0.82;;;13.80;99.90;;;;;;6275007;22;20422;-83
2023/09/24 00:14:30;;;;;;;1.80;0.90;;;13.90;99.90;;;;;;6274454;22;19996;-83
2023/09/24 00:16:57;;;;;;;3.45;1.10;;;13.90;99.90;;;;;;6276612;22;20015;-83
2023/09/24 00:19:24;;;;;;;1.65;1.05;;;13.90;99.90;;;;;;6248643;22;20004;-82
2023/09/24 00:21:50;;;;;;;1.60;0.90;;;13.70;99.90;;;;;;6276993;22;19992;-83
2023/09/24 00:24:18;;;;;;;3.05;0.98;;;13.60;99.90;;;;;;6249496;22;20006;-83
2023/09/24 00:26:45;;;;;;;2.13;1.02;;;13.40;99.90;;;;;;6249622;22;20011;-83
2023/09/24 00:29:11;;;;;;;2.17;1.00;;;13.20;99.90;;;;;;6248910;22;20000;-83
2023/09/24 00:31:37;;;;;;;2.03;1.10;;;13.20;99.90;;;;;;6278436;22;19996;-83
2023/09/24 00:34:04;;;;;;;2.83;1.25;;;13.00;99.90;;;;;;6251217;22;20006;-83
2023/09/24 00:36:29;;;;;;;4.50;1.20;;;13.10;99.90;;;;;;6250937;22;20053;-82
2023/09/24 00:38:55;;;;;;;2.88;1.50;;;13.10;99.90;;;;;;6278458;22;20309;-82
2023/09/24 00:41:21;;;;;;;3.97;1.45;;;13.20;99.90;;;;;;6251152;22;20007;-82
2023/09/24 00:43:46;;;;;;;2.50;1.40;;;13.10;99.90;;;;;;6251946;22;20410;-83
2023/09/24 00:46:14;;;;;;;4.03;1.50;;;13.20;99.90;;;;;;6250623;22;20015;-82
2023/09/24 00:48:40;;;;;;;2.13;1.17;;;13.20;99.90;;;;;;6278311;22;20026;-83
2023/09/24 00:51:17;;;;;;;3.15;1.30;;;13.30;99.90;;;;;;6251382;22;20004;-82
2023/09/24 00:53:44;;;;;;;3.72;1.13;;;13.20;99.90;;;;;;6278294;22;20000;-83
2023/09/24 00:56:11;;;;;;;2.53;1.25;;;13.20;99.90;;;;;;6250737;22;20373;-83
2023/09/24 00:58:38;;;;;;;1.45;1.10;;;13.20;99.90;;;;;;6251411;22;20022;-83
2023/09/24 01:01:04;;;;;;;3.13;1.40;;;13.20;99.90;;;;;;6251451;22;20057;-83
2023/09/24 01:03:30;;;;;;;1.90;1.20;;;13.10;99.90;;;;;;6250960;22;20083;-83
2023/09/24 01:05:56;;;;;;;1.42;1.00;;;13.00;99.90;;;;;;6251603;22;20418;-83
2023/09/24 01:08:23;;;;;;;1.85;1.17;;;12.90;99.90;;;;;;6250233;22;20010;-83
2023/09/24 01:10:50;;;;;;;2.17;1.30;;;12.90;99.90;;;;;;6278307;22;19996;-83
2023/09/24 01:13:20;;;;;;;3.85;1.27;;;12.90;99.90;;;;;;6250494;22;20010;-83
2023/09/24 01:15:48;;;;;;;1.98;1.38;;;12.80;99.90;;;;;;6277135;22;20504;-83
2023/09/24 01:18:15;;;;;;;1.20;1.05;;;12.80;99.90;;;;;;6277067;22;20066;-83
2023/09/24 01:20:41;;;;;;;3.75;1.52;;;12.80;99.90;;;;;;6251270;22;20000;-83
2023/09/24 01:23:12;;;;;;;3.15;1.50;;;12.90;99.90;;;;;;6250836;22;20007;-84
2023/09/24 01:25:40;;;;;;;3.05;1.15;;;12.90;99.90;;;;;;6251628;22;20000;-83
2023/09/24 01:28:07;;;;;;;3.70;1.42;;;13.00;99.90;;;;;;6251044;22;20071;-84
2023/09/24 01:30:34;;;;;;;3.05;1.40;;;13.00;99.90;;;;;;6278018;22;20091;-84
2023/09/24 01:33:00;;;;;;;3.55;1.40;;;13.00;99.90;;;;;;6251176;22;20007;-82
2023/09/24 01:35:28;;;;;;;4.38;1.58;;;13.10;99.90;;;;;;6277426;22;20314;-83
2023/09/24 01:37:59;;;;;;;2.08;1.40;;;13.10;99.90;;;;;;6278058;22;19995;-83
2023/09/24 01:40:27;;;;;;;;;;;13.00;99.90;;;;;;6278001;22;19999;-83
2023/09/24 01:42:57;;;;;;;2.88;1.33;;;12.80;99.90;;;;;;6251121;22;19899;-83
2023/09/24 01:45:24;;;;;;;2.25;1.50;;;12.70;99.90;;;;;;6250081;22;20325;-83
2023/09/24 01:47:50;;;;;;;2.63;1.40;;;12.60;99.90;;;;;;6277869;22;20426;-83
2023/09/24 01:50:16;;;;;;;2.20;1.30;;;12.50;99.90;;;;;;6250177;22;20007;-83
2023/09/24 01:52:42;;;;;;;2.55;1.55;;;12.40;99.90;;;;;;6250976;22;20011;-84
2023/09/24 01:55:08;;;;;;;3.35;1.73;;;12.30;99.90;;;;;;6250689;22;20454;-84
2023/09/24 01:57:34;;;;;;;3.22;1.52;;;12.30;99.90;;;;;;6250525;22;20004;-83
2023/09/24 02:00:21;;;;;;;3.50;1.50;;;12.20;99.90;;;;;;6250889;22;20331;-83
2023/09/24 02:02:45;;;;;;;4.30;1.50;;;12.10;99.90;;;;;;6277218;22;20323;-83
2023/09/24 02:05:11;;;;;;;3.65;1.50;;;12.00;99.90;;;;;;6250002;22;20006;-82
2023/09/24 02:07:40;;;;;;;3.78;1.40;;;11.90;99.90;;;;;;6250294;22;20004;-83
2023/09/24 02:10:07;;;;;;;1.92;1.40;;;11.90;99.90;;;;;;6250434;22;20083;-82
2023/09/24 02:12:37;;;;;;;2.65;1.30;;;11.90;99.90;;;;;;6250039;22;20430;-84
2023/09/24 02:15:11;;;;;;;2.38;1.17;;;11.90;99.90;;;;;;6250486;22;20003;-84
2023/09/24 02:17:39;;;;;;;2.78;1.10;;;11.90;99.90;;;;;;6274442;22;20024;-84
2023/09/24 02:20:32;;;;;;;1.30;1.08;;;12.10;99.90;;;;;;6276326;22;20000;-83
2023/09/24 02:23:02;;;;;;;1.92;1.17;;;12.10;99.90;;;;;;6277503;22;20004;-83
2023/09/24 02:25:30;;;;;;;2.63;1.30;;;12.00;99.90;;;;;;6275345;22;20026;-84
2023/09/24 02:27:56;;;;;;;1.52;1.10;;;12.00;99.90;;;;;;6276332;22;20000;-84
2023/09/24 02:30:24;;;;;;;2.47;1.10;;;11.90;99.90;;;;;;6277086;22;20003;-83
2023/09/24 02:32:50;;;;;;;2.30;1.00;;;12.10;99.90;;;;;;6277704;22;19992;-83
2023/09/24 02:35:16;;;;;;;2.60;1.27;;;12.20;99.90;;;;;;6275527;22;20007;-82
2023/09/24 02:37:45;;;;;;;3.47;1.20;;;12.20;99.90;;;;;;6276519;22;20361;-83
2023/09/24 02:40:15;;;;;;;3.60;0.90;;;12.30;99.90;;;;;;6276355;22;20300;-83
2023/09/24 02:42:42;;;;;;;2.42;1.00;;;12.20;99.90;;;;;;6277493;22;20422;-83
2023/09/24 02:45:09;;;;;;;1.95;0.93;;;12.10;99.90;;;;;;6275665;22;20004;-83
2023/09/24 02:47:36;;;;;;;2.03;1.10;;;12.10;99.90;;;;;;6276237;22;20039;-83
2023/09/24 02:50:04;;;;;;;1.23;1.00;;;12.10;99.90;;;;;;6276078;22;20011;-83
2023/09/24 02:52:30;;;;;;;1.92;1.00;;;12.10;99.90;;;;;;6275206;22;20000;-83
2023/09/24 02:54:56;;;;;;;2.00;0.90;;;12.10;99.90;;;;;;6277336;22;20070;-83
2023/09/24 02:57:22;;;;;;;2.67;1.08;;;12.10;99.90;;;;;;6275594;22;20089;-83
2023/09/24 02:59:47;;;;;;;1.88;1.17;;;12.10;99.90;;;;;;6276230;22;20422;-83
2023/09/24 03:02:13;;;;;;;2.58;1.00;;;12.10;99.90;;;;;;6275665;22;20319;-82
2023/09/24 03:04:40;;;;;;;1.92;1.02;;;12.10;99.90;;;;;;6275620;22;20426;-83
2023/09/24 03:07:10;;;;;;;2.40;0.95;;;12.10;99.90;;;;;;6277331;22;20061;-84
2023/09/24 03:09:36;;;;;;;2.78;0.98;;;12.10;99.90;;;;;;6275531;22;20030;-84
2023/09/24 03:12:02;;;;;;;1.83;0.73;;;12.10;99.90;;;;;;6276587;22;20003;-84
2023/09/24 03:14:27;;;;;;;2.08;0.88;;;12.10;99.90;;;;;;6275481;22;19996;-84
2023/09/24 03:16:54;;;;;;;2.22;0.90;;;12.00;99.90;;;;;;6275129;22;20069;-84
2023/09/24 03:19:19;;;;;;;1.42;0.90;;;12.00;99.90;;;;;;6275227;22;20011;-84
2023/09/24 03:21:45;;;;;;;3.05;0.93;;;12.00;99.90;;;;;;6275938;22;19996;-84
2023/09/24 03:24:14;;;;;;;3.17;1.02;;;12.00;99.90;;;;;;6277264;22;20070;-84
2023/09/24 03:26:41;;;;;;;3.08;0.80;;;11.90;99.90;;;;;;6275368;22;20087;-83
2023/09/24 03:29:06;;;;;;;1.70;0.82;;;11.90;99.90;;;;;;6275222;22;20078;-84
2023/09/24 03:31:33;;;;;;;1.58;0.88;;;11.80;99.90;;;;;;6275384;22;20323;-84
2023/09/24 03:33:59;;;;;;;1.40;0.90;;;11.70;99.90;;;;;;6276310;22;20000;-83
2023/09/24 03:36:25;;;;;;;1.85;0.98;;;11.70;99.90;;;;;;6275175;22;20004;-83
2023/09/24 03:38:51;;;;;;;2.28;1.33;;;11.60;99.90;;;;;;6276882;22;20000;-83
2023/09/24 03:41:16;;;;;;;3.58;1.02;;;11.50;99.90;;;;;;6275672;22;19996;-83
2023/09/24 03:43:42;;;;;;;1.67;0.85;;;11.40;99.90;;;;;;6275277;22;20000;-82
2023/09/24 03:46:11;;;;;;;2.28;1.02;;;11.40;99.90;;;;;;6275398;22;20016;-83
2023/09/24 03:48:37;;;;;;;4.43;1.05;;;11.40;99.90;;;;;;6274924;22;20038;-82
2023/09/24 03:51:03;;;;;;;1.35;0.82;;;11.40;99.90;;;;;;6275875;22;19996;-83
2023/09/24 03:53:28;;;;;;;2.45;0.85;;;11.40;99.90;;;;;;6274930;22;19996;-83
2023/09/24 03:55:54;;;;;;;2.08;1.00;;;11.40;99.90;;;;;;6275895;22;20004;-82
2023/09/24 03:58:20;;;;;;;2.28;0.82;;;11.40;99.90;;;;;;6276381;22;20003;-81
2023/09/24 04:00:46;;;;;;;2.92;0.82;;;11.30;99.90;;;;;;6275788;22;20000;-83
2023/09/24 04:03:14;;;;;;;7.60;1.42;;;11.20;99.90;;;;;;6276747;22;20004;-82
2023/09/24 04:05:39;;;;;;;1.63;0.93;;;11.20;99.90;;;;;;6275841;22;20003;-82
2023/09/24 04:08:05;;;;;;;1.63;1.10;;;11.20;99.90;;;;;;6277687;22;20003;-82
2023/09/24 04:10:32;;;;;;;3.92;1.08;;;11.10;99.90;;;;;;6276579;22;20003;-82
2023/09/24 04:12:59;;;;;;;2.25;0.80;;;11.10;99.90;;;;;;6278486;22;20000;-82
2023/09/24 04:15:28;;;;;;;2.63;1.00;;;11.10;99.90;;;;;;6276228;22;20000;-82
2023/09/24 04:17:57;;;;;;;2.40;0.90;;;11.00;99.90;;;;;;6278589;22;20026;-82
2023/09/24 04:20:25;;;;;;;4.25;1.27;;;10.90;99.90;;;;;;6250936;22;19996;-81
2023/09/24 04:22:51;;;;;;;1.42;0.80;;;10.90;99.90;;;;;;6251513;22;20030;-82
2023/09/24 04:25:20;;;;;;;1.73;0.82;;;11.00;99.90;;;;;;6251985;22;20000;-82
2023/09/24 04:27:46;;;;;;;1.27;1.00;;;10.90;99.90;;;;;;6251812;22;20430;-82
2023/09/24 04:30:16;;;;;;;2.03;0.80;;;10.90;99.90;;;;;;6251897;22;19996;-82
2023/09/24 04:32:57;;;;;;;2.28;0.90;;;11.00;99.90;;;;;;6278229;22;20430;-82
2023/09/24 04:35:23;;;;;;;2.17;0.80;;;11.10;99.90;;;;;;6251287;22;19995;-83
2023/09/24 04:37:50;;;;;;;1.88;1.02;;;11.10;99.90;;;;;;6252160;22;19999;-83
2023/09/24 04:40:16;;;;;;;1.15;0.70;;;11.20;99.90;;;;;;6252076;22;20000;-82
2023/09/24 04:42:43;;;;;;;1.40;0.80;;;11.10;99.90;;;;;;6250905;22;20007;-83
2023/09/24 04:45:11;;;;;;;2.20;0.82;;;11.00;99.90;;;;;;6251451;22;19996;-82
2023/09/24 04:47:41;;;;;;;1.65;0.80;;;11.10;99.90;;;;;;6250803;22;20018;-83
2023/09/24 04:50:10;;;;;;;3.35;0.65;;;11.00;99.90;;;;;;6278071;22;20453;-83
2023/09/24 04:52:37;;;;;;;3.38;0.90;;;11.00;99.90;;;;;;6250832;22;20003;-83
2023/09/24 04:55:04;;;;;;;1.90;0.93;;;10.90;99.90;;;;;;6251413;22;20027;-83
2023/09/24 04:57:30;;;;;;;2.80;1.02;;;10.90;99.90;;;;;;6250960;22;20011;-83
2023/09/24 04:59:55;;;;;;;2.20;0.80;;;10.90;99.90;;;;;;6251785;22;20004;-82
2023/09/24 05:02:21;;;;;;;1.73;1.02;;;10.90;99.90;;;;;;6251576;22;20438;-84
2023/09/24 05:04:50;;;;;;;2.15;1.00;;;10.80;99.90;;;;;;6251224;22;20343;-82
2023/09/24 05:07:16;;;;;;;3.80;0.93;;;10.80;99.90;;;;;;6251263;22;20114;-83
2023/09/24 05:09:43;;;;;;;1.65;0.70;;;10.80;99.90;;;;;;6277680;22;20064;-83
2023/09/24 05:12:10;;;;;;;2.22;0.70;;;10.80;99.90;;;;;;6251278;22;20000;-83
2023/09/24 05:14:36;;;;;;;1.48;0.68;;;10.70;99.90;;;;;;6250503;22;20008;-82
2023/09/24 05:17:02;;;;;;;2.03;0.73;;;10.80;99.90;;;;;;6267637;22;20051;-83
2023/09/24 05:19:27;;;;;;;3.25;0.70;;;10.70;99.90;;;;;;6276372;22;20039;-82
2023/09/24 05:21:53;;;;;;;2.90;1.02;;;10.70;99.90;;;;;;6277081;22;20051;-83
2023/09/24 05:24:18;;;;;;;1.95;0.82;;;10.70;99.90;;;;;;6278418;22;20287;-83
2023/09/24 05:26:44;;;;;;;2.13;1.17;;;10.60;99.90;;;;;;6276108;22;20274;-84
2023/09/24 05:29:11;;;;;;;2.05;0.80;;;10.70;99.90;;;;;;6277958;22;19999;-83
2023/09/24 05:31:37;;;;;;;1.73;0.80;;;10.70;99.90;;;;;;6277547;22;20453;-82
2023/09/24 05:34:04;;;;;;;1.20;0.63;;;10.80;99.90;;;;;;6276805;22;20008;-83
2023/09/24 05:36:30;;;;;;;1.38;0.82;;;10.80;99.90;;;;;;6275769;22;20007;-82
2023/09/24 05:38:57;;;;;;;3.05;0.70;;;10.70;99.90;;;;;;6276666;22;20083;-82
2023/09/24 05:41:23;;;;;;;1.25;0.80;;;10.60;99.90;;;;;;6277478;22;19999;-81
2023/09/24 05:43:48;;;;;;;1.55;1.00;;;10.50;99.90;;;;;;6276194;22;20035;-81
2023/09/24 05:46:14;;;;;;;3.58;1.10;;;10.40;99.90;;;;;;6276500;22;20035;-82
2023/09/24 05:48:40;;;;;;;1.80;1.15;;;10.40;99.90;;;;;;6275778;22;20461;-81
2023/09/24 05:51:07;;;;;;;2.90;1.10;;;10.40;99.90;;;;;;6276788;22;20031;-81
2023/09/24 05:53:33;;;;;;;2.67;0.90;;;10.40;99.90;;;;;;6276962;22;19992;-81
2023/09/24 05:56:01;;;;;;;1.70;0.80;;;10.40;99.90;;;;;;6276792;22;20001;-82
2023/09/24 05:58:26;;;;;;;1.40;0.80;;;10.50;99.90;;;;;;6275808;22;20011;-83
2023/09/24 06:00:55;;;;;;;1.88;0.80;;;10.50;99.90;;;;;;6276161;22;20086;-81
2023/09/24 06:03:21;;;;;;;3.83;0.90;;;10.60;99.90;;;;;;6276626;22;20011;-81
2023/09/24 06:05:47;;;;;;;1.85;0.77;;;10.70;99.90;;;;;;6276092;22;20392;-83
2023/09/24 06:08:13;;;;;;;2.92;0.90;;;10.70;99.90;;;;;;6276487;22;20007;-83
2023/09/24 06:10:46;;;;;;;3.92;1.08;;;10.80;99.90;;;;;;6275879;22;20004;-83
2023/09/24 06:13:16;;;;;;;1.90;0.70;;;10.70;99.90;;;;;;6277915;22;20027;-82
2023/09/24 06:15:43;;;;;;;3.00;0.90;;;10.70;99.90;;;;;;6275246;22;20046;-82
2023/09/24 06:18:10;;;;;;;1.17;0.80;;;10.70;99.90;;;;;;6275928;22;20078;-82
2023/09/24 06:20:40;;;;;;;2.75;0.52;;;10.70;99.90;;;;;;6275647;22;19999;-83
2023/09/24 06:23:06;;;;;;;3.80;0.88;;;10.70;99.90;;;;;;6276347;22;19999;-83
2023/09/24 06:25:32;;;;;;;1.33;0.80;;;10.80;99.90;;;;;;6275994;22;20003;-82
2023/09/24 06:27:58;;;;;;;4.53;0.77;;;10.90;99.90;;;;;;6277149;22;20411;-82
2023/09/24 06:30:24;;;;;;;2.53;0.90;;;10.90;99.90;;;;;;6276116;22;20053;-82
2023/09/24 06:32:50;;;;;;;3.10;0.95;;;10.90;99.90;;;;;;6276858;22;20025;-83
2023/09/24 06:35:16;;;;;;;2.10;0.88;;;11.00;99.90;;;;;;6275416;22;20031;-83
2023/09/24 06:37:41;;;;;;;1.23;0.95;;;11.00;99.90;;;;;;6274588;22;20007;-83
2023/09/24 06:40:11;;;;;;;3.67;0.90;;;11.00;99.90;;;;;;6275529;22;20010;-82
2023/09/24 06:42:37;;;;;;;2.35;0.70;;;11.10;99.90;;;;;;6274328;22;20014;-82
2023/09/24 06:45:08;;;;;;;2.13;0.63;;;11.10;99.90;;;;;;6275873;22;20004;-81
2023/09/24 06:47:34;;;;;;;1.20;0.70;;;11.20;99.90;;;;;;6275179;22;20443;-83
2023/09/24 06:50:00;;;;;;;1.88;0.90;;;11.20;99.90;;;;;;6275443;22;19999;-82
2023/09/24 06:52:30;;;;;;;2.67;0.90;;;11.20;99.90;;;;;;6276474;22;20007;-84
2023/09/24 06:54:56;;;;;;;6.38;1.05;;;11.30;99.90;;;;;;6275230;22;20342;-82
2023/09/24 06:57:22;;;;;;;4.22;0.93;;;11.30;99.90;;;;;;6276630;22;20011;-82
2023/09/24 06:59:48;;;;;;;1.75;0.95;;;11.30;99.90;;;;;;6275268;22;20000;-82
2023/09/24 07:02:16;;;;;;;1.55;0.90;;;11.40;99.90;;;;;;6275695;22;20083;-82
2023/09/24 07:04:43;;;;;;;3.70;1.05;;;11.30;99.90;;;;;;6274936;22;20064;-83
2023/09/24 07:07:09;;;;;;;1.15;0.80;;;11.30;99.90;;;;;;6275694;22;20028;-82
2023/09/24 07:09:36;;;;;;;2.10;1.00;;;11.40;99.90;;;;;;6275081;22;20006;-82
2023/09/24 07:12:02;;;;;;;3.03;0.98;;;11.50;99.90;;;;;;6275405;22;20003;-83
2023/09/24 07:14:28;;;;;;;2.80;0.90;;;11.60;99.90;;;;;;6277058;22;20058;-84
2023/09/24 07:16:57;;;;;;;1.85;0.90;;;11.70;99.90;;;;;;6274247;22;20027;-84
2023/09/24 07:19:24;;;;;;;3.65;0.77;;;11.80;99.90;;;;;;6275660;22;20435;-84
2023/09/24 07:21:50;;;;;;;3.92;1.00;;;11.80;99.90;;;;;;6274909;22;20434;-83
2023/09/24 07:24:16;;;;;;;2.05;0.80;;;11.90;99.90;;;;;;6275543;22;20000;-84
2023/09/24 07:26:45;;;;;;;1.30;1.00;;;11.90;99.90;;;;;;6274765;22;20008;-83
2023/09/24 07:29:11;;;;;;;2.85;0.80;;;12.00;99.90;;;;;;6275887;22;20468;-84
2023/09/24 07:31:37;;;;;;;3.75;0.82;;;12.00;99.90;;;;;;6275266;22;20004;-84
2023/09/24 07:34:05;;;;;;;1.48;0.73;;;12.10;99.90;;;;;;6275694;22;20000;-82
2023/09/24 07:36:31;;;;;;;1.65;0.98;;;12.10;99.90;;;;;;6275030;22;20031;-83
2023/09/24 07:38:57;;;;;;;1.50;0.80;;;12.20;99.90;;;;;;6277492;22;20010;-83
2023/09/24 07:41:24;;;;;;;1.98;0.82;;;12.10;99.90;;;;;;6264918;22;20004;-83
2023/09/24 07:43:51;;;;;;;3.45;1.17;;;12.20;99.90;;;;;;6274576;22;20008;-82
2023/09/24 07:46:19;;;;;;;2.58;0.90;;;12.20;99.90;;;;;;6275719;22;20040;-84
2023/09/24 07:48:49;;;;;;;1.08;0.70;;;12.20;99.90;;;;;;6275962;22;20058;-85
2023/09/24 07:51:19;;;;;;;3.45;0.88;;;12.30;99.90;;;;;;6274761;22;20023;-81
2023/09/24 07:53:50;;;;;;;3.20;0.85;;;12.40;99.90;;;;;;6275019;22;20003;-81
2023/09/24 07:56:16;;;;;;;1.30;0.82;;;12.50;99.90;;;;;;6277204;22;20003;-81
2023/09/24 07:58:42;;;;;;;3.58;0.75;;;12.50;99.90;;;;;;6274421;22;20008;-82
2023/09/24 08:01:10;;;;;;;1.13;0.80;;;12.50;99.90;;;;;;6276704;22;20100;-86
2023/09/24 08:03:37;;;;;;;2.63;1.23;;;12.50;99.90;;;;;;6269360;22;20054;-82
2023/09/24 08:06:05;;;;;;;2.03;0.70;;;12.60;99.90;;;;;;6274555;22;20012;-83
2023/09/24 08:08:35;;;;;;;3.08;0.90;;;12.60;99.90;;;;;;6274472;22;20007;-81
2023/09/24 08:11:02;;;;;;;2.70;0.80;;;12.70;99.90;;;;;;6274972;22;20014;-81
2023/09/24 08:13:29;;;;;;;1.48;0.80;;;12.70;99.90;;;;;;6276348;22;20154;-82
2023/09/24 08:15:56;;;;;;;1.08;0.50;;;12.70;99.90;;;;;;6259589;22;20249;-83
2023/09/24 08:18:23;;;;;;;1.80;0.60;;;12.70;99.90;;;;;;6273672;22;20102;-84
2023/09/24 08:20:49;;;;;;;3.90;0.73;;;12.80;99.90;;;;;;6273360;22;20011;-83
2023/09/24 08:23:18;;;;;;;3.45;0.88;;;12.80;99.90;;;;;;6274405;22;20003;-81
2023/09/24 08:25:44;;;;;;;2.88;0.80;;;12.90;99.90;;;;;;6273122;22;20000;-82
2023/09/24 08:28:11;;;;;;;2.30;0.90;;;12.90;99.90;;;;;;6274864;22;20007;-80
2023/09/24 08:30:37;;;;;;;2.75;0.98;;;13.00;99.90;;;;;;6275667;22;19996;-80
2023/09/24 08:33:04;;;;;;;1.50;0.90;;;13.00;99.90;;;;;;6274865;22;20000;-81
2023/09/24 08:35:31;;;;;;;1.80;0.75;;;13.10;99.90;;;;;;6275989;22;20038;-81
2023/09/24 08:38:14;;;;;;;0.90;0.60;;;13.10;99.90;;;;;;6275018;22;20000;-81
2023/09/24 08:40:41;;;;;;;3.80;0.93;;;13.20;99.90;;;;;;6275932;22;20007;-83
2023/09/24 08:43:15;;;;;;;1.38;0.68;;;13.30;99.90;;;;;;6274544;22;20067;-83
2023/09/24 08:45:42;;;;;;;1.55;0.50;;;13.30;99.90;;;;;;6274564;22;20093;-83
2023/09/24 08:48:09;;;;;;;2.67;1.00;;;13.40;99.90;;;;;;6275725;22;20000;-83
2023/09/24 08:50:41;;;;;;;3.83;0.70;;;13.40;99.90;;;;;;6274186;22;20007;-81
2023/09/24 08:53:12;;;;;;;2.17;0.70;;;13.40;99.90;;;;;;6275261;22;20000;-82
2023/09/24 08:55:43;;;;;;;5.20;0.87;;;13.50;99.90;;;;;;6274654;22;20000;-82
2023/09/24 08:58:10;;;;;;;1.75;0.60;;;13.50;99.90;;;;;;6276559;22;19995;-81
2023/09/24 09:00:36;;;;;;;2.67;0.88;;;13.50;99.90;;;;;;6273834;22;20006;-80
2023/09/24 09:03:03;;;;;;;3.80;0.85;;;13.50;99.90;;;;;;6270949;22;20011;-82
2023/09/24 09:05:33;;;;;;;2.00;0.70;;;13.70;99.90;;;;;;6271997;22;20007;-81
2023/09/24 09:08:02;;;;;;;4.22;0.93;;;13.70;99.90;;;;;;6273928;22;20012;-81
2023/09/24 09:10:32;;;;;;;1.95;0.68;;;13.70;99.90;;;;;;6274586;22;20318;-81
2023/09/24 09:13:25;;;;;;;4.68;0.70;;;13.80;99.90;;;;;;6274443;22;20004;-82
2023/09/24 09:16:08;;;;;;;2.63;0.85;;;13.80;99.90;;;;;;6265630;22;20030;-82
2023/09/24 09:18:35;;;;;;;1.38;0.73;;;13.90;99.90;;;;;;6275897;22;20042;-80
2023/09/24 09:21:01;;;;;;;1.30;0.80;;;13.90;99.90;;;;;;6274458;22;20053;-83
2023/09/24 09:23:31;;;;;;;1.90;0.77;;;13.90;99.90;;;;;;6274196;22;20087;-82
2023/09/24 09:25:57;;;;;;;3.28;0.82;;;14.00;99.90;;;;;;6275774;22;20006;-85
2023/09/24 09:28:29;;;;;;;2.00;0.85;;;14.10;99.90;;;;;;6274835;22;20003;-84
2023/09/24 09:30:58;;;;;;;;;;;14.10;99.90;;;;;;6275199;22;20144;-84
2023/09/24 09:33:26;;;;;;;2.10;1.05;;;14.20;99.90;;;;;;6274939;22;19899;-85
2023/09/24 09:35:52;;;;;;;2.50;0.80;;;14.20;99.90;;;;;;6274531;22;20062;-84
2023/09/24 09:38:18;;;;;;;2.15;0.90;;;14.20;99.90;;;;;;6274456;22;20053;-82
2023/09/24 09:40:46;;;;;;;3.92;0.90;;;14.30;99.90;;;;;;6274150;22;20008;-84
2023/09/24 09:43:17;;;;;;;2.25;0.80;;;14.30;99.90;;;;;;6274193;22;20453;-84
2023/09/24 09:45:44;;;;;;;1.65;0.73;;;14.30;99.90;;;;;;6274357;22;20003;-85
2023/09/24 09:48:12;;;;;;;1.80;0.80;;;14.40;99.90;;;;;;6274394;22;20429;-84
2023/09/24 09:50:45;;;;;;;0.77;0.65;;;14.50;99.90;;;;;;6272783;22;20008;-81
2023/09/24 09:53:16;;;;;;;3.10;0.70;;;14.50;99.90;;;;;;6275409;22;20000;-81
2023/09/24 09:55:46;;;;;;;3.20;0.70;;;14.50;99.90;;;;;;6273453;22;20056;-80
2023/09/24 09:58:14;;;;;;;0.85;0.50;;;14.60;99.90;;;;;;6274487;22;20012;-82
2023/09/24 10:00:40;;;;;;;4.45;0.88;;;14.70;99.90;;;;;;6273089;22;20414;-82
2023/09/24 10:03:07;;;;;;;1.40;0.80;;;14.70;99.90;;;;;;6274265;22;20007;-81
2023/09/24 10:05:34;;;;;;;5.13;0.70;;;14.70;99.90;;;;;;6274420;22;20014;-83
2023/09/24 10:08:00;;;;;;;2.67;0.80;;;14.80;99.90;;;;;;6274098;22;20472;-82
2023/09/24 10:10:32;;;;;;;3.17;0.52;;;14.80;99.90;;;;;;6274172;22;20003;-81
2023/09/24 10:12:59;;;;;;;3.75;0.60;;;14.90;99.90;;;;;;6274175;22;20000;-82
2023/09/24 10:15:30;;;;;;;3.53;0.50;;;14.90;99.90;;;;;;6273973;22;20010;-82
2023/09/24 10:18:12;;;;;;;1.65;0.70;;;15.00;99.90;;;;;;6247576;22;20476;-82
2023/09/24 10:20:49;;;;;;;1.95;0.63;;;15.10;99.90;;;;;;6274879;22;19996;-82
2023/09/24 10:23:44;;;;;;;5.07;0.80;;;15.10;99.90;;;;;;6275770;22;19996;-82
2023/09/24 10:27:01;;;;;;;3.22;0.60;;;15.10;99.90;;;;;;6216686;22;20018;-83
2023/09/24 10:29:53;;;;;;;4.82;0.80;;;15.20;99.90;;;;;;6245856;22;20528;-82
2023/09/24 10:32:21;;;;;;;1.70;0.63;;;15.20;99.90;;;;;;6275551;22;20007;-82
2023/09/24 10:34:59;;;;;;;2.08;0.77;;;15.20;99.90;;;;;;6248307;22;20015;-83
2023/09/24 10:37:29;;;;;;;1.17;0.65;;;15.20;99.90;;;;;;6248182;22;20010;-82
2023/09/24 10:39:58;;;;;;;2.40;0.68;;;15.20;99.90;;;;;;6275234;22;20002;-82
2023/09/24 10:42:30;;;;;;;3.63;0.80;;;15.20;99.90;;;;;;6248366;22;20319;-80
2023/09/24 10:45:07;;;;;;;1.88;0.50;;;15.30;99.90;;;;;;6247494;22;20454;-81
2023/09/24 10:47:38;;;;;;;2.42;0.65;;;15.40;99.90;;;;;;6275476;22;20015;-82
2023/09/24 10:50:13;;;;;;;3.30;0.90;;;15.50;99.90;;;;;;6275667;22;20019;-81
2023/09/24 10:52:46;;;;;;;2.58;0.63;;;15.60;99.90;;;;;;6247640;22;20086;-81
2023/09/24 10:55:11;;;;;;;2.72;0.77;;;15.70;99.90;;;;;;6276000;22;20007;-81
2023/09/24 10:57:37;;;;;;;2.92;0.75;;;15.70;99.90;;;;;;6247595;22;20529;-81
2023/09/24 11:00:04;;;;;;;1.90;0.43;;;15.70;99.90;;;;;;6274063;22;20004;-81
2023/09/24 11:02:30;;;;;;;2.05;0.70;;;15.80;99.90;;;;;;6246934;22;20010;-81
2023/09/24 11:05:02;;;;;;;3.47;0.90;;;15.90;99.90;;;;;;6248210;22;20086;-80
2023/09/24 11:07:27;;;;;;;1.38;0.70;;;16.00;99.90;;;;;;6248929;22;20019;-82
2023/09/24 11:09:54;;;;;;;1.75;0.60;;;16.00;99.90;;;;;;6274616;22;20050;-81
2023/09/24 11:12:19;;;;;;;1.60;0.70;;;16.10;99.90;;;;;;6248267;22;20004;-81
2023/09/24 11:14:55;;;;;;;3.42;0.90;;;16.10;99.90;;;;;;6248583;22;20327;-81
2023/09/24 11:17:20;;;;;;;3.70;0.73;;;16.10;99.90;;;;;;6276329;22;20015;-81
2023/09/24 11:19:48;;;;;;;1.42;0.50;;;16.30;99.90;;;;;;6247639;22;20326;-78
2023/09/24 11:22:18;;;;;;;3.08;0.75;;;16.30;99.90;;;;;;6248081;22;20004;-81
2023/09/24 11:24:44;;;;;;;2.70;0.73;;;16.40;99.90;;;;;;6248341;22;20022;-81
2023/09/24 11:27:10;;;;;;;1.52;0.70;;;16.60;99.90;;;;;;6275519;22;20083;-80
2023/09/24 11:29:36;;;;;;;3.17;0.85;;;16.60;99.90;;;;;;6247953;22;20338;-79
2023/09/24 11:32:05;;;;;;;1.15;0.75;;;16.70;99.90;;;;;;6248534;22;20342;-81
2023/09/24 11:34:32;;;;;;;1.15;0.65;;;16.70;99.90;;;;;;6275774;22;20014;-81
2023/09/24 11:36:58;;;;;;;2.55;0.68;;;16.90;99.90;;;;;;6274724;22;20000;-82
2023/09/24 11:39:24;;;;;;;2.08;0.70;;;16.90;99.90;;;;;;6274848;22;19996;-81
2023/09/24 11:41:50;;;;;;;2.92;0.70;;;16.90;99.90;;;;;;6246816;22;20007;-81
2023/09/24 11:44:17;;;;;;;3.35;0.70;;;17.00;99.90;;;;;;6249360;22;20010;-81
2023/09/24 11:46:44;;;;;;;3.50;0.80;;;17.10;99.90;;;;;;6275274;22;20008;-81
2023/09/24 11:49:10;;;;;;;1.75;0.70;;;17.10;99.90;;;;;;6251066;22;20008;-81
2023/09/24 11:51:35;;;;;;;2.72;0.60;;;17.10;99.90;;;;;;6252871;22;20024;-81
2023/09/24 11:54:02;;;;;;;4.13;0.80;;;17.30;99.90;;;;;;6250664;22;20430;-81
2023/09/24 11:56:29;;;;;;;2.45;0.77;;;17.40;99.90;;;;;;6252812;22;20007;-81
2023/09/24 11:58:55;;;;;;;2.72;0.70;;;17.60;99.90;;;;;;6250767;22;20004;-81
2023/09/24 12:01:21;;;;;;;1.55;0.70;;;17.80;99.90;;;;;;6274540;22;20010;-86
2023/09/24 12:03:47;;;;;;;1.55;0.80;;;17.90;99.90;;;;;;6248991;22;19999;-81
2023/09/24 12:06:13;;;;;;;1.50;0.70;;;18.00;99.80;;;;;;6249201;22;20043;-82
2023/09/24 12:08:39;;;;;;;2.33;0.50;;;18.10;99.30;;;;;;6247805;22;20050;-83
2023/09/24 12:11:05;;;;;;;1.83;0.70;;;18.20;98.70;;;;;;6275181;22;20000;-81
2023/09/24 12:13:31;;;;;;;1.63;0.70;;;18.30;98.90;;;;;;6249195;22;20000;-80
2023/09/24 12:15:57;;;;;;;1.88;0.70;;;18.40;98.30;;;;;;6250474;22;20015;-80
2023/09/24 12:18:22;;;;;;;2.35;0.60;;;18.60;97.80;;;;;;6275465;22;20007;-79
2023/09/24 12:20:48;;;;;;;1.42;0.57;;;18.70;98.20;;;;;;6274854;22;20041;-81
2023/09/24 12:23:14;;;;;;;1.52;0.70;;;18.80;98.30;;;;;;6275205;22;20053;-81
2023/09/24 12:25:42;;;;;;;1.35;0.57;;;19.00;97.90;;;;;;6273967;22;19999;-81
2023/09/24 12:28:15;;;;;;;3.25;0.70;;;19.10;97.50;;;;;;6276899;22;20065;-79
2023/09/24 12:30:43;;;;;;;2.13;0.57;;;19.20;97.50;;;;;;6274352;22;20004;-83
2023/09/24 12:33:09;;;;;;;3.03;0.90;;;19.50;96.90;;;;;;6274604;22;20057;-78
2023/09/24 12:35:37;;;;;;;1.17;0.60;;;19.70;96.80;;;;;;6277376;22;20003;-81
2023/09/24 12:38:03;;;;;;;1.40;0.52;;;19.80;95.40;;;;;;6275736;22;20003;-80
2023/09/24 12:40:29;;;;;;;4.57;0.90;;;20.00;95.80;;;;;;6274554;22;19996;-80
2023/09/24 12:42:54;;;;;;;1.60;0.60;;;20.20;95.60;;;;;;6273543;22;20011;-81
2023/09/24 12:45:20;;;;;;;3.15;0.70;;;20.50;95.30;;;;;;6274089;22;20003;-80
2023/09/24 12:47:46;;;;;;;1.65;0.82;;;20.60;95.10;;;;;;6274897;22;20015;-79
2023/09/24 12:50:13;;;;;;;2.35;0.50;;;20.80;93.00;;;;;;6274883;22;20441;-83
2023/09/24 12:52:44;;;;;;;1.30;0.60;;;21.00;92.40;;;;;;6274471;22;20000;-81